createdAt,value
2022-10-04T00:00:41.564Z,9.60
2022-10-04T00:03:26.393Z,9.60
2022-10-04T00:05:56.698Z,9.70
2022-10-04T00:08:48.812Z,9.60
2022-10-04T00:11:36.150Z,9.60
2022-10-04T00:14:16.374Z,9.50
2022-10-04T00:16:44.185Z,9.40
2022-10-04T00:19:19.673Z,9.40
2022-10-04T00:21:56.453Z,9.30
2022-10-04T00:24:31.364Z,9.30
2022-10-04T00:27:25.708Z,9.30
2022-10-04T00:30:04.540Z,9.30
2022-10-04T00:33:02.347Z,9.40
2022-10-04T00:35:29.133Z,9.40
2022-10-04T00:38:11.977Z,9.50
2022-10-04T00:40:55.378Z,9.50
2022-10-04T00:43:46.320Z,9.60
2022-10-04T00:46:23.303Z,9.80
2022-10-04T00:49:04.467Z,9.80
2022-10-04T00:52:09.774Z,9.80
2022-10-04T00:54:45.171Z,9.80
2022-10-04T00:57:28.551Z,9.80
2022-10-04T01:00:18.029Z,9.90
2022-10-04T01:03:10.671Z,9.90
2022-10-04T01:05:42.708Z,9.90
2022-10-04T01:08:16.968Z,10.00
2022-10-04T01:11:02.657Z,10.10
2022-10-04T01:13:38.868Z,10.10
2022-10-04T01:16:21.030Z,10.10
2022-10-04T01:18:48.689Z,10.10
2022-10-04T01:21:27.364Z,10.10
2022-10-04T01:23:59.718Z,10.00
2022-10-04T01:26:30.186Z,9.90
2022-10-04T01:28:59.178Z,9.90
2022-10-04T01:31:31.827Z,9.70
2022-10-04T01:34:01.546Z,9.60
2022-10-04T01:36:29.377Z,9.60
2022-10-04T01:38:56.878Z,9.50
2022-10-04T01:41:57.132Z,9.50
2022-10-04T01:44:39.263Z,9.50
2022-10-04T01:47:14.172Z,9.50
2022-10-04T01:49:44.143Z,9.50
2022-10-04T01:52:28.568Z,9.50
2022-10-04T01:55:05.969Z,9.50
2022-10-04T01:57:45.253Z,9.60
2022-10-04T02:00:14.076Z,9.60
2022-10-04T02:03:18.428Z,9.70
2022-10-04T02:05:53.382Z,9.70
2022-10-04T02:08:28.070Z,9.80
2022-10-04T02:10:56.735Z,9.80
2022-10-04T02:13:30.185Z,9.80
2022-10-04T02:15:58.680Z,9.80
2022-10-04T02:18:27.155Z,9.80
2022-10-04T02:20:55.195Z,9.90
2022-10-04T02:23:24.215Z,9.80
2022-10-04T02:25:52.175Z,9.80
2022-10-04T02:28:19.682Z,9.80
2022-10-04T02:31:10.199Z,9.70
2022-10-04T02:33:47.039Z,9.70
2022-10-04T02:36:15.918Z,9.60
2022-10-04T02:38:56.726Z,9.60
2022-10-04T02:41:44.149Z,9.60
2022-10-04T02:44:47.302Z,9.60
2022-10-04T02:47:20.119Z,9.50
2022-10-04T02:49:53.273Z,9.50
2022-10-04T02:52:31.869Z,9.40
2022-10-04T02:55:22.573Z,9.30
2022-10-04T02:57:52.449Z,9.20
2022-10-04T03:00:24.590Z,9.10
2022-10-04T03:03:23.862Z,9.10
2022-10-04T03:06:08.921Z,9.00
2022-10-04T03:08:59.946Z,9.00
2022-10-04T03:11:33.681Z,9.00
2022-10-04T03:14:05.554Z,9.20
2022-10-04T03:16:39.979Z,9.30
2022-10-04T03:19:08.534Z,9.40
2022-10-04T03:21:37.494Z,9.40
2022-10-04T03:24:06.328Z,9.40
2022-10-04T03:26:49.162Z,9.40
2022-10-04T03:29:19.213Z,9.40
2022-10-04T03:31:53.173Z,9.30
2022-10-04T03:34:28.926Z,9.30
2022-10-04T03:36:59.253Z,9.30
2022-10-04T03:39:33.581Z,9.30
2022-10-04T03:42:15.201Z,9.40
2022-10-04T03:44:45.302Z,9.40
2022-10-04T03:47:28.474Z,9.40
2022-10-04T03:49:59.221Z,9.30
2022-10-04T03:52:32.093Z,9.40
2022-10-04T03:55:03.738Z,9.30
2022-10-04T03:57:31.346Z,9.30
2022-10-04T03:59:59.604Z,9.20
2022-10-04T04:02:45.647Z,9.20
2022-10-04T04:05:17.223Z,9.20
2022-10-04T04:08:03.635Z,9.10
2022-10-04T04:10:35.984Z,9.10
2022-10-04T04:13:34.520Z,9.10
2022-10-04T04:16:02.993Z,9.10
2022-10-04T04:18:38.642Z,9.10
2022-10-04T04:21:08.215Z,9.00
2022-10-04T04:23:43.445Z,9.10
2022-10-04T04:26:25.282Z,9.00
2022-10-04T04:28:55.008Z,9.00
2022-10-04T04:31:41.740Z,9.00
2022-10-04T04:34:24.893Z,9.00
2022-10-04T04:36:58.994Z,9.00
2022-10-04T04:39:37.160Z,9.10
2022-10-04T04:42:10.565Z,9.10
2022-10-04T04:45:16.017Z,9.10
2022-10-04T04:47:47.130Z,9.10
2022-10-04T04:50:19.621Z,9.10
2022-10-04T04:52:51.122Z,9.10
2022-10-04T04:55:27.048Z,9.20
2022-10-04T04:57:58.163Z,9.20
2022-10-04T05:00:34.995Z,9.10
2022-10-04T05:03:05.405Z,9.10
2022-10-04T05:05:33.987Z,9.00
2022-10-04T05:08:28.782Z,8.90
2022-10-04T05:10:58.386Z,8.80
2022-10-04T05:13:44.459Z,8.70
2022-10-04T05:16:26.225Z,8.60
2022-10-04T05:19:21.694Z,8.60
2022-10-04T05:21:52.162Z,8.50
2022-10-04T05:24:27.992Z,8.40
2022-10-04T05:27:01.993Z,8.50
2022-10-04T05:29:36.929Z,8.40
2022-10-04T05:32:26.273Z,8.30
2022-10-04T05:34:54.580Z,8.20
2022-10-04T05:37:53.295Z,8.20
2022-10-04T05:40:38.275Z,8.10
2022-10-04T05:43:47.420Z,8.10
2022-10-04T05:46:30.552Z,8.00
2022-10-04T05:49:18.940Z,8.00
2022-10-04T05:51:53.661Z,8.00
2022-10-04T05:54:27.547Z,8.00
2022-10-04T05:57:15.884Z,7.90
2022-10-04T06:00:10.619Z,7.90
2022-10-04T06:02:51.348Z,7.80
2022-10-04T06:05:40.884Z,7.80
2022-10-04T06:08:26.520Z,7.80
2022-10-04T06:11:17.607Z,7.80
2022-10-04T06:14:30.731Z,7.80
2022-10-04T06:17:51.471Z,7.90
2022-10-04T06:20:51.562Z,8.00
2022-10-04T06:23:21.176Z,8.20
2022-10-04T06:26:00.567Z,8.30
2022-10-04T06:28:46.627Z,8.40
2022-10-04T06:31:24.479Z,8.40
2022-10-04T06:34:12.754Z,8.40
2022-10-04T06:37:16.876Z,8.50
2022-10-04T06:40:20.870Z,8.60
2022-10-04T06:42:56.533Z,8.70
2022-10-04T06:45:54.279Z,8.90
2022-10-04T06:49:12.306Z,9.00
2022-10-04T06:51:57.949Z,9.20
2022-10-04T06:55:01.816Z,9.50
2022-10-04T06:57:53.466Z,9.70
2022-10-04T07:00:26.197Z,10.00
2022-10-04T07:03:09.789Z,10.20
2022-10-04T07:05:50.827Z,10.40
2022-10-04T07:08:47.936Z,10.60
2022-10-04T07:11:32.887Z,10.80
2022-10-04T07:14:22.376Z,10.90
2022-10-04T07:17:03.281Z,10.90
2022-10-04T07:19:46.254Z,11.00
2022-10-04T07:22:47.691Z,11.10
2022-10-04T07:25:27.363Z,11.20
2022-10-04T07:28:31.056Z,11.40
2022-10-04T07:31:11.983Z,11.40
2022-10-04T07:33:51.678Z,11.50
2022-10-04T07:36:40.151Z,11.60
2022-10-04T07:39:17.479Z,11.90
2022-10-04T07:42:24.676Z,12.10
2022-10-04T07:45:30.369Z,12.50
2022-10-04T07:48:14.817Z,12.80
2022-10-04T07:51:21.738Z,13.00
2022-10-04T07:54:13.124Z,13.60
2022-10-04T07:57:00.656Z,14.10
2022-10-04T07:59:53.412Z,14.40
2022-10-04T08:02:41.562Z,15.00
2022-10-04T08:05:37.863Z,15.30
2022-10-04T08:08:16.319Z,15.20
2022-10-04T08:11:11.167Z,14.80
2022-10-04T08:14:21.450Z,14.70
2022-10-04T08:17:01.002Z,14.80
2022-10-04T08:20:01.289Z,14.80
2022-10-04T08:23:20.040Z,14.60
2022-10-04T08:26:14.514Z,14.70
2022-10-04T08:29:37.333Z,14.80
2022-10-04T08:32:51.362Z,14.70
2022-10-04T08:35:38.363Z,14.90
2022-10-04T08:38:58.532Z,15.30
2022-10-04T08:42:08.167Z,15.50
2022-10-04T08:45:06.415Z,15.10
2022-10-04T08:47:51.803Z,14.90
2022-10-04T08:50:33.568Z,15.10
2022-10-04T08:53:53.775Z,15.40
2022-10-04T08:56:51.241Z,15.40
2022-10-04T08:59:33.014Z,15.90
2022-10-04T09:02:55.422Z,16.30
2022-10-04T09:05:53.440Z,16.50
2022-10-04T09:09:04.662Z,16.70
2022-10-04T09:12:04.935Z,16.80
2022-10-04T09:14:56.202Z,16.60
2022-10-04T09:17:59.737Z,16.50
2022-10-04T09:20:44.639Z,16.60
2022-10-04T09:23:46.465Z,16.60
2022-10-04T09:26:46.500Z,16.50
2022-10-04T09:29:27.455Z,16.10
2022-10-04T09:32:22.450Z,15.80
2022-10-04T09:35:03.978Z,15.50
2022-10-04T09:37:31.001Z,15.50
2022-10-04T09:40:31.085Z,15.60
2022-10-04T09:43:25.679Z,15.70
2022-10-04T09:46:18.002Z,15.70
2022-10-04T09:49:10.280Z,15.70
2022-10-04T09:52:01.830Z,16.00
2022-10-04T09:54:55.118Z,16.20
2022-10-04T09:58:03.273Z,16.30
2022-10-04T10:01:23.448Z,16.60
2022-10-04T10:04:12.993Z,16.60
2022-10-04T10:06:52.136Z,16.80
2022-10-04T10:09:46.691Z,16.80
2022-10-04T10:13:11.282Z,16.80
2022-10-04T10:16:02.331Z,16.80
2022-10-04T10:18:56.238Z,16.80
2022-10-04T10:22:11.354Z,17.00
2022-10-04T10:24:58.092Z,17.00
2022-10-04T10:28:12.163Z,17.20
2022-10-04T10:31:05.912Z,17.40
2022-10-04T10:33:47.583Z,17.40
2022-10-04T10:36:35.652Z,17.40
2022-10-04T10:39:17.889Z,17.30
2022-10-04T10:42:34.862Z,17.50
2022-10-04T10:45:26.690Z,17.50
2022-10-04T10:48:27.335Z,17.60
2022-10-04T10:51:50.302Z,18.00
2022-10-04T10:54:41.818Z,18.00
2022-10-04T10:57:39.399Z,17.80
2022-10-04T11:00:23.723Z,17.80
2022-10-04T11:03:48.586Z,17.90
2022-10-04T11:06:49.574Z,17.90
2022-10-04T11:09:30.084Z,17.90
2022-10-04T11:12:42.704Z,18.30
2022-10-04T11:15:57.238Z,18.60
2022-10-04T11:19:29.411Z,18.60
2022-10-04T11:23:02.048Z,18.70
2022-10-04T11:25:56.546Z,18.80
2022-10-04T11:28:52.510Z,18.70
2022-10-04T11:31:56.472Z,18.90
2022-10-04T11:35:16.122Z,19.10
2022-10-04T11:38:48.558Z,19.10
2022-10-04T11:41:43.108Z,19.00
2022-10-04T11:44:35.057Z,19.10
2022-10-04T11:47:46.820Z,19.10
2022-10-04T11:50:35.568Z,19.00
2022-10-04T11:53:43.618Z,19.00
2022-10-04T11:56:19.293Z,19.00
2022-10-04T11:58:53.202Z,19.10
2022-10-04T12:02:07.541Z,19.50
2022-10-04T12:05:02.887Z,19.60
2022-10-04T12:07:43.515Z,19.70
2022-10-04T12:10:39.283Z,19.60
2022-10-04T12:13:53.186Z,19.60
2022-10-04T12:16:45.817Z,19.60
2022-10-04T12:20:02.255Z,19.50
2022-10-04T12:22:46.222Z,19.50
2022-10-04T12:25:38.863Z,19.70
2022-10-04T12:28:45.546Z,19.90
2022-10-04T12:31:54.923Z,19.90
2022-10-04T12:34:36.392Z,20.00
2022-10-04T12:37:20.049Z,19.90
2022-10-04T12:40:18.161Z,20.00
2022-10-04T12:43:18.397Z,20.10
2022-10-04T12:45:52.764Z,20.00
2022-10-04T12:48:51.823Z,20.00
2022-10-04T12:52:04.594Z,19.90
2022-10-04T12:54:47.639Z,20.00
2022-10-04T12:57:29.793Z,20.10
2022-10-04T13:00:05.847Z,20.20
2022-10-04T13:03:05.227Z,20.10
2022-10-04T13:05:47.357Z,19.70
2022-10-04T13:09:11.268Z,19.50
2022-10-04T13:12:00.562Z,19.50
2022-10-04T13:14:58.389Z,19.60
2022-10-04T13:17:50.047Z,19.80
2022-10-04T13:20:38.189Z,19.80
2022-10-04T13:23:27.228Z,19.60
2022-10-04T13:26:08.866Z,19.50
2022-10-04T13:28:44.125Z,19.50
2022-10-04T13:31:25.125Z,19.50
2022-10-04T13:34:20.182Z,19.60
2022-10-04T13:36:55.634Z,19.70
2022-10-04T13:39:29.804Z,19.90
2022-10-04T13:42:49.943Z,19.60
2022-10-04T13:46:00.648Z,19.30
2022-10-04T13:48:37.766Z,19.40
2022-10-04T13:51:37.608Z,19.40
2022-10-04T13:54:47.625Z,19.50
2022-10-04T13:57:46.973Z,19.60
2022-10-04T14:00:58.915Z,19.50
2022-10-04T14:04:10.409Z,19.40
2022-10-04T14:06:51.993Z,19.20
2022-10-04T14:09:56.802Z,19.00
2022-10-04T14:13:03.840Z,19.00
2022-10-04T14:16:11.262Z,19.20
2022-10-04T14:18:54.088Z,19.30
2022-10-04T14:21:32.826Z,19.50
2022-10-04T14:24:47.075Z,19.60
2022-10-04T14:27:40.910Z,19.50
2022-10-04T14:30:34.479Z,19.50
2022-10-04T14:33:31.024Z,19.40
2022-10-04T14:36:12.814Z,19.40
2022-10-04T14:39:01.227Z,19.40
2022-10-04T14:42:14.351Z,19.50
2022-10-04T14:45:04.807Z,19.40
2022-10-04T14:48:07.866Z,19.10
2022-10-04T14:50:57.740Z,19.00
2022-10-04T14:53:28.206Z,19.00
2022-10-04T14:56:32.863Z,19.00
2022-10-04T14:59:14.723Z,18.90
2022-10-04T15:02:07.359Z,18.90
2022-10-04T15:04:51.493Z,19.00
2022-10-04T15:07:30.158Z,19.00
2022-10-04T15:10:11.379Z,19.10
2022-10-04T15:13:09.842Z,19.20
2022-10-04T15:16:33.622Z,19.10
2022-10-04T15:19:19.832Z,19.20
2022-10-04T15:21:53.411Z,19.20
2022-10-04T15:24:25.521Z,19.20
2022-10-04T15:27:38.111Z,19.10
2022-10-04T15:30:24.665Z,19.00
2022-10-04T15:33:19.073Z,18.90
2022-10-04T15:35:59.338Z,18.80
2022-10-04T15:38:34.683Z,18.70
2022-10-04T15:41:24.826Z,18.70
2022-10-04T15:44:13.984Z,18.60
2022-10-04T15:47:07.282Z,18.50
2022-10-04T15:49:55.756Z,18.50
2022-10-04T15:52:46.731Z,18.40
2022-10-04T15:55:52.896Z,18.40
2022-10-04T15:58:46.518Z,18.30
2022-10-04T16:01:47.486Z,18.20
2022-10-04T16:04:36.495Z,18.10
2022-10-04T16:07:28.156Z,18.10
2022-10-04T16:10:19.002Z,18.10
2022-10-04T16:13:17.209Z,18.00
2022-10-04T16:15:50.355Z,17.90
2022-10-04T16:18:51.383Z,17.90
2022-10-04T16:22:08.323Z,17.80
2022-10-04T16:24:46.873Z,17.80
2022-10-04T16:27:54.763Z,17.70
2022-10-04T16:30:33.388Z,17.70
2022-10-04T16:33:36.606Z,17.70
2022-10-04T16:36:22.736Z,17.70
2022-10-04T16:39:15.751Z,17.60
2022-10-04T16:42:01.389Z,17.60
2022-10-04T16:44:52.456Z,17.60
2022-10-04T16:47:39.591Z,17.50
2022-10-04T16:50:13.098Z,17.50
2022-10-04T16:53:44.812Z,17.50
2022-10-04T16:56:20.659Z,17.50
2022-10-04T16:59:04.124Z,17.50
2022-10-04T17:02:05.980Z,17.50
2022-10-04T17:04:41.938Z,17.50
2022-10-04T17:07:23.931Z,17.50
2022-10-04T17:10:34.217Z,17.40
2022-10-04T17:13:34.198Z,17.40
2022-10-04T17:16:16.398Z,17.40
2022-10-04T17:19:30.784Z,17.40
2022-10-04T17:22:27.893Z,17.40
2022-10-04T17:25:27.929Z,17.30
2022-10-04T17:28:20.699Z,17.30
2022-10-04T17:31:19.434Z,17.30
2022-10-04T17:34:20.699Z,17.30
2022-10-04T17:37:35.483Z,17.30
2022-10-04T17:40:29.265Z,17.30
2022-10-04T17:43:12.250Z,17.20
2022-10-04T17:46:44.791Z,17.20
2022-10-04T17:50:02.481Z,17.20
2022-10-04T17:53:00.836Z,17.20
2022-10-04T17:55:53.703Z,17.20
2022-10-04T17:58:30.492Z,17.20
2022-10-04T18:01:08.604Z,17.10
2022-10-04T18:03:54.775Z,17.10
2022-10-04T18:06:38.651Z,17.10
2022-10-04T18:09:35.905Z,17.10
2022-10-04T18:12:22.504Z,17.00
2022-10-04T18:15:40.615Z,17.00
2022-10-04T18:18:30.495Z,17.00
2022-10-04T18:21:28.338Z,17.00
2022-10-04T18:24:17.144Z,16.90
2022-10-04T18:27:15.508Z,16.90
2022-10-04T18:29:45.431Z,16.80
2022-10-04T18:32:27.590Z,16.80
2022-10-04T18:35:02.727Z,16.80
2022-10-04T18:37:41.282Z,16.80
2022-10-04T18:40:41.383Z,16.80
2022-10-04T18:43:42.544Z,16.80
2022-10-04T18:46:21.593Z,16.70
2022-10-04T18:48:55.758Z,16.70
2022-10-04T18:51:41.977Z,16.70
2022-10-04T18:54:36.582Z,16.60
2022-10-04T18:57:27.046Z,16.60
2022-10-04T19:00:21.697Z,16.60
2022-10-04T19:03:29.510Z,16.60
2022-10-04T19:06:25.409Z,16.60
2022-10-04T19:09:33.781Z,16.60
2022-10-04T19:12:11.393Z,16.60
2022-10-04T19:14:59.104Z,16.60
2022-10-04T19:17:30.207Z,16.60
2022-10-04T19:20:18.782Z,16.60
2022-10-04T19:23:19.638Z,16.60
2022-10-04T19:26:16.261Z,16.50
2022-10-04T19:28:38.373Z,16.50
2022-10-04T19:31:07.085Z,16.50
2022-10-04T19:33:54.603Z,16.50
2022-10-04T19:36:38.145Z,16.50
2022-10-04T19:39:42.423Z,16.50
2022-10-04T19:42:13.568Z,16.50
2022-10-04T19:45:07.667Z,16.60
2022-10-04T19:47:53.161Z,16.60
2022-10-04T19:50:48.961Z,16.50
2022-10-04T19:53:31.079Z,16.60
2022-10-04T19:56:00.273Z,16.60
2022-10-04T19:58:37.144Z,16.60
2022-10-04T20:01:21.575Z,16.60
2022-10-04T20:04:08.729Z,16.60
2022-10-04T20:06:38.407Z,16.60
2022-10-04T20:09:37.747Z,16.60
2022-10-04T20:12:05.875Z,16.60
2022-10-04T20:14:32.671Z,16.60
2022-10-04T20:17:00.813Z,16.60
2022-10-04T20:19:27.626Z,16.60
2022-10-04T20:22:30.473Z,16.60
2022-10-04T20:24:59.291Z,16.60
2022-10-04T20:27:29.557Z,16.60
2022-10-04T20:29:57.116Z,16.60
2022-10-04T20:32:26.920Z,16.60
2022-10-04T20:34:56.300Z,16.50
2022-10-04T20:38:02.916Z,16.50
2022-10-04T20:40:45.911Z,16.50
2022-10-04T20:43:15.869Z,16.40
2022-10-04T20:45:51.806Z,16.40
2022-10-04T20:48:24.827Z,16.40
2022-10-04T20:50:52.832Z,16.30
2022-10-04T20:53:26.767Z,16.30
2022-10-04T20:56:24.360Z,16.40
2022-10-04T20:58:54.582Z,16.40
2022-10-04T21:01:36.111Z,16.30
2022-10-04T21:04:54.575Z,16.30
2022-10-04T21:07:26.823Z,16.30
2022-10-04T21:10:06.885Z,16.30
2022-10-04T21:12:39.842Z,16.30
2022-10-04T21:15:13.176Z,16.20
2022-10-04T21:17:40.099Z,16.20
2022-10-04T21:20:15.466Z,16.20
2022-10-04T21:22:42.897Z,16.20
2022-10-04T21:25:32.028Z,16.20
2022-10-04T21:28:35.056Z,16.20
2022-10-04T21:31:03.945Z,16.10
2022-10-04T21:33:31.623Z,16.10
2022-10-04T21:35:58.655Z,16.10
2022-10-04T21:38:25.583Z,16.10
2022-10-04T21:40:52.523Z,16.10
2022-10-04T21:43:19.437Z,16.10
2022-10-04T21:45:46.403Z,16.00
2022-10-04T21:48:13.499Z,16.00
2022-10-04T21:50:40.912Z,16.00
2022-10-04T21:53:07.899Z,16.00
2022-10-04T21:55:34.794Z,15.90
2022-10-04T21:58:01.808Z,15.90
2022-10-04T22:00:29.029Z,15.90
2022-10-04T22:02:56.007Z,15.90
2022-10-04T22:05:23.131Z,15.90
2022-10-04T22:07:50.096Z,15.90
2022-10-04T22:10:17.441Z,15.90
2022-10-04T22:12:44.585Z,15.90
2022-10-04T22:15:11.539Z,15.90
2022-10-04T22:17:38.423Z,15.90
2022-10-04T22:20:06.022Z,15.90
2022-10-04T22:22:37.590Z,15.90
2022-10-04T22:25:15.734Z,15.90
2022-10-04T22:27:42.804Z,15.90
2022-10-04T22:30:27.426Z,15.90
2022-10-04T22:32:57.933Z,15.90
2022-10-04T22:35:25.341Z,15.90
2022-10-04T22:37:52.492Z,15.90
2022-10-04T22:40:28.714Z,15.80
2022-10-04T22:42:59.057Z,15.80
2022-10-04T22:45:33.450Z,15.80
2022-10-04T22:48:07.947Z,15.80
2022-10-04T22:50:38.663Z,15.80
2022-10-04T22:53:14.357Z,15.80
2022-10-04T22:55:41.655Z,15.90
2022-10-04T22:58:14.105Z,15.90
2022-10-04T23:00:42.097Z,15.90
2022-10-04T23:03:31.409Z,15.90
2022-10-04T23:06:03.022Z,15.90
2022-10-04T23:08:30.558Z,15.90
2022-10-04T23:11:00.750Z,15.90
2022-10-04T23:13:28.154Z,15.90
2022-10-04T23:16:00.556Z,15.90
2022-10-04T23:18:30.945Z,15.90
2022-10-04T23:21:01.717Z,15.90
2022-10-04T23:23:30.966Z,15.90
2022-10-04T23:25:57.883Z,15.90
2022-10-04T23:28:25.062Z,15.90
2022-10-04T23:31:07.874Z,15.90
2022-10-04T23:33:34.802Z,15.90
2022-10-04T23:36:01.787Z,15.90
2022-10-04T23:38:30.396Z,15.90
2022-10-04T23:40:57.346Z,15.80
2022-10-04T23:43:25.797Z,15.90
2022-10-04T23:45:57.980Z,15.90
2022-10-04T23:48:27.473Z,15.90
2022-10-04T23:50:59.951Z,15.90
2022-10-04T23:53:32.120Z,15.90
2022-10-04T23:56:17.869Z,15.80
2022-10-04T23:58:45.250Z,15.80
